Time;durP1;ratioP1;P1;durP2;ratioP2;P2;SDS_P1;SDS_P2;PMS_P1;PMS_P2;Temp;Humidity;BMP_temperature;BMP_pressure;BME280_temperature;BME280_humidity;BME280_pressure;Samples;Min_cycle;Max_cycle;Signal;HPM_P1;HPM_P2
2021/11/21 00:02:38;;;;;;;13.20;9.17;;;;;;;;;;10405284;28;20029;-87
2021/11/21 00:07:39;;;;;;;13.07;9.32;;;;;;;;;;10412079;28;20450;-87
2021/11/21 00:12:39;;;;;;;18.58;9.93;;;;;;;;;;10392088;28;20044;-85
2021/11/21 00:17:40;;;;;;;16.27;10.50;;;;;;;;;;10414931;28;20040;-85
2021/11/21 00:22:40;;;;;;;12.90;8.83;;;;;;;;;;10397356;28;20454;-85
2021/11/21 00:27:40;;;;;;;13.93;8.13;;;;;;;;;;10570746;22;21019;-78
2021/11/21 00:32:41;;;;;;;12.43;8.83;;;;;;;;;;10450528;28;20081;-78
2021/11/21 00:37:41;;;;;;;15.90;9.27;;;;;;;;;;10433797;28;20838;-80
2021/11/21 00:42:42;;;;;;;11.97;9.10;;;;;;;;;;10431985;28;20120;-78
2021/11/21 00:47:42;;;;;;;12.63;8.53;;;;;;;;;;10435060;28;20514;-78
2021/11/21 00:52:43;;;;;;;11.30;8.05;;;;;;;;;;10435711;28;20446;-80
2021/11/21 00:57:44;;;;;;;13.32;8.27;;;;;;;;;;10455805;28;20037;-78
2021/11/21 01:02:45;;;;;;;14.23;8.60;;;;;;;;;;10453694;28;20108;-78
2021/11/21 01:07:45;;;;;;;14.10;8.32;;;;;;;;;;10427908;28;20051;-80
2021/11/21 01:12:46;;;;;;;11.03;7.87;;;;;;;;;;10453126;28;20112;-78
2021/11/21 01:17:48;;;;;;;9.50;7.63;;;;;;;;;;10446895;28;20792;-78
2021/11/21 01:22:49;;;;;;;11.00;7.65;;;;;;;;;;10429008;28;20525;-78
2021/11/21 01:27:49;;;;;;;10.95;7.63;;;;;;;;;;10423753;28;20045;-80
2021/11/21 01:32:50;;;;;;;11.70;8.32;;;;;;;;;;10436094;28;20029;-78
2021/11/21 01:37:50;;;;;;;9.80;7.35;;;;;;;;;;10444011;28;20029;-79
2021/11/21 01:42:52;;;;;;;11.98;8.15;;;;;;;;;;10436683;28;20520;-79
2021/11/21 01:47:53;;;;;;;13.55;7.72;;;;;;;;;;10438194;28;20037;-79
2021/11/21 01:52:54;;;;;;;12.85;7.97;;;;;;;;;;10419762;28;20033;-79
2021/11/21 01:57:56;;;;;;;10.50;7.22;;;;;;;;;;10455948;28;20025;-78
2021/11/21 02:02:56;;;;;;;10.18;7.22;;;;;;;;;;10449484;28;20374;-79
2021/11/21 02:07:57;;;;;;;9.27;7.65;;;;;;;;;;10449124;28;20045;-79
2021/11/21 02:12:57;;;;;;;9.73;7.00;;;;;;;;;;10459027;28;20037;-81
2021/11/21 02:17:58;;;;;;;9.88;7.50;;;;;;;;;;10440097;28;20040;-79
2021/11/21 02:22:58;;;;;;;11.43;7.37;;;;;;;;;;10440788;28;20104;-79
2021/11/21 02:27:59;;;;;;;10.15;7.15;;;;;;;;;;10443004;28;20458;-78
2021/11/21 02:33:00;;;;;;;13.85;7.53;;;;;;;;;;10456574;28;20070;-78
2021/11/21 02:38:00;;;;;;;10.18;6.85;;;;;;;;;;10441539;28;20029;-78
2021/11/21 02:43:01;;;;;;;9.95;6.65;;;;;;;;;;10434467;28;20105;-78
2021/11/21 02:48:01;;;;;;;9.32;7.53;;;;;;;;;;10432669;28;20037;-80
2021/11/21 02:53:02;;;;;;;14.97;6.53;;;;;;;;;;10437487;28;20454;-80
2021/11/21 02:58:04;;;;;;;8.00;6.22;;;;;;;;;;10454486;28;20470;-79
2021/11/21 03:03:05;;;;;;;9.50;7.35;;;;;;;;;;10442530;28;20039;-79
2021/11/21 03:08:05;;;;;;;8.68;6.57;;;;;;;;;;10448587;28;20036;-79
2021/11/21 03:13:07;;;;;;;9.82;7.13;;;;;;;;;;10449046;28;20466;-79
2021/11/21 03:18:07;;;;;;;11.68;7.03;;;;;;;;;;10445108;28;20029;-80
2021/11/21 03:23:07;;;;;;;10.43;6.60;;;;;;;;;;10441153;28;20460;-80
2021/11/21 03:28:08;;;;;;;8.43;6.30;;;;;;;;;;10442895;28;20466;-80
2021/11/21 03:33:09;;;;;;;10.20;6.60;;;;;;;;;;10433420;28;20075;-80
2021/11/21 03:38:09;;;;;;;8.32;6.82;;;;;;;;;;10435887;28;20443;-80
2021/11/21 03:43:09;;;;;;;8.77;6.17;;;;;;;;;;10446451;28;20371;-80
2021/11/21 03:48:10;;;;;;;8.18;6.55;;;;;;;;;;10452511;28;20438;-80
2021/11/21 03:53:10;;;;;;;8.43;6.65;;;;;;;;;;10444350;28;20167;-80
2021/11/21 03:58:11;;;;;;;7.68;5.78;;;;;;;;;;10453795;28;20406;-80
2021/11/21 04:03:16;;;;;;;7.88;5.97;;;;;;;;;;10444121;28;20072;-80
2021/11/21 04:08:16;;;;;;;8.07;6.05;;;;;;;;;;10435444;28;20033;-80
2021/11/21 04:13:17;;;;;;;9.45;6.53;;;;;;;;;;10428776;28;20038;-79
2021/11/21 04:18:17;;;;;;;10.45;5.97;;;;;;;;;;10438652;28;20063;-79
2021/11/21 04:23:18;;;;;;;9.20;6.40;;;;;;;;;;10434691;28;20025;-79
2021/11/21 04:28:19;;;;;;;10.65;5.43;;;;;;;;;;10457056;28;20461;-79
2021/11/21 04:33:21;;;;;;;7.78;6.03;;;;;;;;;;10452598;28;20044;-79
2021/11/21 04:38:23;;;;;;;7.15;5.57;;;;;;;;;;10432887;28;20032;-79
2021/11/21 04:43:24;;;;;;;6.30;5.65;;;;;;;;;;10446978;28;20033;-80
2021/11/21 04:48:25;;;;;;;9.33;6.17;;;;;;;;;;10434015;28;20025;-80
2021/11/21 04:53:26;;;;;;;7.35;5.50;;;;;;;;;;10445150;28;20442;-79
2021/11/21 04:58:26;;;;;;;10.05;5.78;;;;;;;;;;10461361;28;20028;-79
2021/11/21 05:03:27;;;;;;;9.13;6.07;;;;;;;;;;10433836;28;20041;-79
2021/11/21 05:08:27;;;;;;;7.18;5.40;;;;;;;;;;10433236;28;20549;-79
2021/11/21 05:13:28;;;;;;;5.50;4.93;;;;;;;;;;10444751;28;20467;-79
2021/11/21 05:18:29;;;;;;;6.50;5.80;;;;;;;;;;10447610;28;20036;-79
2021/11/21 05:23:29;;;;;;;7.15;5.85;;;;;;;;;;10452623;28;20500;-79
2021/11/21 05:28:30;;;;;;;10.45;6.60;;;;;;;;;;10448276;28;20105;-79
2021/11/21 05:33:30;;;;;;;7.43;5.25;;;;;;;;;;10440391;28;20536;-79
2021/11/21 05:38:31;;;;;;;9.23;5.30;;;;;;;;;;10445325;28;20053;-79
2021/11/21 05:43:37;;;;;;;7.28;5.85;;;;;;;;;;10458875;28;20017;-79
2021/11/21 05:48:37;;;;;;;9.02;5.55;;;;;;;;;;10416855;28;20367;-79
2021/11/21 05:53:39;;;;;;;7.30;5.32;;;;;;;;;;10440942;28;20025;-79
2021/11/21 05:58:39;;;;;;;7.13;4.88;;;;;;;;;;10434915;28;20450;-79
2021/11/21 06:03:40;;;;;;;7.32;5.57;;;;;;;;;;10438593;28;20030;-80
2021/11/21 06:08:40;;;;;;;7.00;5.55;;;;;;;;;;10436051;28;20364;-79
2021/11/21 06:13:41;;;;;;;6.78;5.35;;;;;;;;;;10436486;28;20021;-79
2021/11/21 06:18:41;;;;;;;6.03;5.10;;;;;;;;;;10427287;28;20375;-79
2021/11/21 06:23:42;;;;;;;6.17;5.43;;;;;;;;;;10432768;28;20021;-79
2021/11/21 06:28:43;;;;;;;8.25;6.00;;;;;;;;;;10433359;28;20470;-79
2021/11/21 06:33:43;;;;;;;7.78;5.70;;;;;;;;;;10439964;28;20025;-79
2021/11/21 06:38:44;;;;;;;6.57;5.20;;;;;;;;;;10439465;28;20029;-79
2021/11/21 06:43:44;;;;;;;7.30;5.28;;;;;;;;;;10431631;28;20352;-79
2021/11/21 06:48:44;;;;;;;6.50;5.70;;;;;;;;;;10448375;28;20025;-79
2021/11/21 06:53:48;;;;;;;7.00;4.90;;;;;;;;;;10443693;28;20852;-79
2021/11/21 06:58:48;;;;;;;7.85;5.18;;;;;;;;;;10440863;28;20025;-79
2021/11/21 07:03:48;;;;;;;6.72;4.93;;;;;;;;;;10424313;28;20040;-83
2021/11/21 07:08:51;;;;;;;9.57;5.90;;;;;;;;;;10434726;28;20037;-83
2021/11/21 07:13:51;;;;;;;10.43;6.40;;;;;;;;;;10433440;28;20443;-84
2021/11/21 07:18:52;;;;;;;10.30;7.03;;;;;;;;;;10434587;28;20094;-83
2021/11/21 07:23:52;;;;;;;10.15;6.75;;;;;;;;;;10442575;28;20043;-84
2021/11/21 07:28:53;;;;;;;8.97;6.73;;;;;;;;;;10455452;28;20049;-83
2021/11/21 07:33:53;;;;;;;9.68;6.82;;;;;;;;;;10429091;28;20457;-84
2021/11/21 07:38:54;;;;;;;8.15;6.70;;;;;;;;;;10436599;28;20064;-83
2021/11/21 07:43:54;;;;;;;16.75;7.57;;;;;;;;;;10445224;28;20071;-84
2021/11/21 07:48:55;;;;;;;10.05;7.60;;;;;;;;;;10425284;28;20043;-83
2021/11/21 07:53:55;;;;;;;10.82;7.82;;;;;;;;;;10425627;28;20379;-83
2021/11/21 07:58:55;;;;;;;9.87;7.17;;;;;;;;;;10430619;28;20051;-83
2021/11/21 08:03:56;;;;;;;11.33;7.23;;;;;;;;;;10424104;28;20461;-83
2021/11/21 08:08:56;;;;;;;13.87;8.00;;;;;;;;;;10422512;28;20040;-83
2021/11/21 08:13:58;;;;;;;12.65;7.68;;;;;;;;;;10437521;28;20124;-84
2021/11/21 08:18:58;;;;;;;13.15;8.10;;;;;;;;;;10423260;28;20107;-84
2021/11/21 08:23:58;;;;;;;8.87;7.40;;;;;;;;;;10431759;28;20536;-84
2021/11/21 08:28:59;;;;;;;14.10;7.27;;;;;;;;;;10426012;28;20137;-83
2021/11/21 08:33:59;;;;;;;11.27;7.53;;;;;;;;;;10424986;28;20087;-83
2021/11/21 08:39:00;;;;;;;12.23;7.63;;;;;;;;;;10435550;28;20447;-86
2021/11/21 08:44:00;;;;;;;13.70;7.57;;;;;;;;;;10438566;28;20617;-83
2021/11/21 08:49:01;;;;;;;17.48;7.70;;;;;;;;;;10442124;28;20029;-86
2021/11/21 08:54:02;;;;;;;19.67;7.82;;;;;;;;;;10431574;28;20032;-83
2021/11/21 08:59:03;;;;;;;18.47;7.93;;;;;;;;;;10445983;28;20028;-87
2021/11/21 09:04:04;;;;;;;14.63;7.72;;;;;;;;;;10431125;28;20968;-90
2021/11/21 09:09:04;;;;;;;19.88;7.95;;;;;;;;;;10430378;28;20057;-87
2021/11/21 09:14:05;;;;;;;26.50;8.50;;;;;;;;;;10422160;28;20025;-88
2021/11/21 09:19:06;;;;;;;24.70;8.07;;;;;;;;;;10449680;28;20033;-83
2021/11/21 09:24:06;;;;;;;13.40;7.33;;;;;;;;;;10458084;28;20079;-83
2021/11/21 09:29:07;;;;;;;17.80;7.90;;;;;;;;;;10445616;28;20470;-84
2021/11/21 09:34:08;;;;;;;17.67;7.93;;;;;;;;;;10434607;28;20044;-81
2021/11/21 09:39:09;;;;;;;12.60;7.65;;;;;;;;;;10448001;28;20112;-85
2021/11/21 09:44:09;;;;;;;13.60;6.97;;;;;;;;;;10438094;28;20082;-82
2021/11/21 09:49:10;;;;;;;17.00;7.93;;;;;;;;;;10424218;28;20037;-82
2021/11/21 09:54:10;;;;;;;13.13;7.88;;;;;;;;;;10431429;28;20028;-82
2021/11/21 09:59:12;;;;;;;16.30;8.60;;;;;;;;;;10446301;28;20033;-82
2021/11/21 10:04:13;;;;;;;12.02;6.82;;;;;;;;;;10444876;28;20035;-82
2021/11/21 10:09:18;;;;;;;14.73;7.63;;;;;;;;;;10456988;28;20442;-82
2021/11/21 10:14:19;;;;;;;12.38;7.28;;;;;;;;;;10445661;28;20041;-81
2021/11/21 10:19:19;;;;;;;13.27;7.90;;;;;;;;;;10443227;28;20021;-82
2021/11/21 10:24:28;;;;;;;10.00;6.82;;;;;;;;;;10444104;28;20792;-82
2021/11/21 10:29:37;;;;;;;15.85;8.55;;;;;;;;;;10438236;28;20052;-81
2021/11/21 10:34:48;;;;;;;13.70;7.50;;;;;;;;;;10429514;28;20123;-82
2021/11/21 10:39:49;;;;;;;15.05;7.93;;;;;;;;;;10443693;28;20032;-82
2021/11/21 10:44:50;;;;;;;13.90;7.45;;;;;;;;;;10452590;28;20033;-81
2021/11/21 10:49:52;;;;;;;17.92;7.97;;;;;;;;;;10443173;28;20399;-80
2021/11/21 10:54:57;;;;;;;16.80;8.52;;;;;;;;;;10433207;28;20034;-80
2021/11/21 10:59:59;;;;;;;15.75;8.50;;;;;;;;;;10446394;28;20051;-82
2021/11/21 11:05:06;;;;;;;18.83;8.15;;;;;;;;;;10458396;28;20033;-80
2021/11/21 11:10:14;;;;;;;18.65;8.77;;;;;;;;;;10446997;28;20033;-85
2021/11/21 11:15:15;;;;;;;16.55;8.25;;;;;;;;;;10450209;28;20118;-83
2021/11/21 11:20:17;;;;;;;20.63;8.75;;;;;;;;;;10433738;28;20041;-83
2021/11/21 11:25:30;;;;;;;13.82;9.02;;;;;;;;;;10419658;28;20348;-83
2021/11/21 11:30:33;;;;;;;14.55;8.65;;;;;;;;;;10421274;28;20133;-83
2021/11/21 11:35:34;;;;;;;13.45;7.97;;;;;;;;;;10431428;28;20121;-83
2021/11/21 11:40:53;;;;;;;18.52;8.77;;;;;;;;;;10424669;28;20468;-83
2021/11/21 11:45:56;;;;;;;15.43;7.75;;;;;;;;;;10440894;28;20033;-83
2021/11/21 11:50:58;;;;;;;17.80;8.20;;;;;;;;;;10430367;28;20064;-83
2021/11/21 11:56:20;;;;;;;14.02;7.38;;;;;;;;;;10437970;28;20458;-83
2021/11/21 12:01:38;;;;;;;15.05;8.45;;;;;;;;;;10454210;28;20048;-83
2021/11/21 12:06:48;;;;;;;21.33;8.10;;;;;;;;;;10444143;28;20095;-83
2021/11/21 12:11:52;;;;;;;16.75;7.72;;;;;;;;;;10450784;28;20049;-83
2021/11/21 12:17:05;;;;;;;16.35;7.65;;;;;;;;;;10427189;28;20087;-83
2021/11/21 12:22:29;;;;;;;14.30;6.97;;;;;;;;;;10427957;28;20387;-83
2021/11/21 12:27:35;;;;;;;12.25;7.45;;;;;;;;;;10519634;23;20129;-84
2021/11/21 12:32:46;;;;;;;11.85;7.68;;;;;;;;;;10441636;28;20495;-83
2021/11/21 12:37:48;;;;;;;12.30;7.97;;;;;;;;;;10435376;28;20053;-83
2021/11/21 12:43:11;;;;;;;17.05;8.20;;;;;;;;;;10427426;28;20031;-83
2021/11/21 12:48:14;;;;;;;12.50;7.22;;;;;;;;;;10430849;28;20112;-83
2021/11/21 12:53:21;;;;;;;12.32;8.07;;;;;;;;;;10432479;28;20037;-83
2021/11/21 12:58:26;;;;;;;19.23;8.25;;;;;;;;;;10454101;28;20040;-83
2021/11/21 13:03:28;;;;;;;10.38;7.03;;;;;;;;;;10457853;28;20123;-83
2021/11/21 13:08:31;;;;;;;11.05;7.25;;;;;;;;;;10433622;28;20024;-83
2021/11/21 13:13:35;;;;;;;12.75;6.97;;;;;;;;;;10421556;28;20398;-83
2021/11/21 13:18:37;;;;;;;10.27;7.10;;;;;;;;;;10443334;28;20040;-83
2021/11/21 13:23:38;;;;;;;15.77;7.20;;;;;;;;;;10413003;28;20029;-83
2021/11/21 13:28:40;;;;;;;11.48;7.13;;;;;;;;;;10444401;28;20383;-83
2021/11/21 13:33:50;;;;;;;11.35;6.93;;;;;;;;;;10442697;28;20049;-83
2021/11/21 13:38:53;;;;;;;11.95;7.10;;;;;;;;;;10447079;28;20051;-83
2021/11/21 13:44:01;;;;;;;9.25;6.47;;;;;;;;;;10426713;28;20030;-84
2021/11/21 13:49:22;;;;;;;11.20;6.80;;;;;;;;;;10442558;28;20139;-83
2021/11/21 13:54:25;;;;;;;13.32;7.18;;;;;;;;;;10442379;28;20780;-82
2021/11/21 13:59:26;;;;;;;10.63;6.53;;;;;;;;;;10455663;28;20479;-82
2021/11/21 14:04:32;;;;;;;9.25;6.75;;;;;;;;;;10440724;28;20037;-82
2021/11/21 14:09:32;;;;;;;11.32;6.55;;;;;;;;;;10448274;28;20503;-82
2021/11/21 14:14:33;;;;;;;10.63;6.40;;;;;;;;;;10430403;28;20040;-82
2021/11/21 14:19:35;;;;;;;10.90;7.60;;;;;;;;;;10449316;28;20494;-82
2021/11/21 14:24:36;;;;;;;13.60;7.30;;;;;;;;;;10438247;28;20032;-82
2021/11/21 14:29:38;;;;;;;12.15;7.60;;;;;;;;;;10440851;28;20045;-82
2021/11/21 14:34:41;;;;;;;10.57;7.20;;;;;;;;;;10438379;28;20162;-82
2021/11/21 14:39:42;;;;;;;14.27;7.88;;;;;;;;;;10434801;28;20029;-82
2021/11/21 14:44:43;;;;;;;12.33;7.10;;;;;;;;;;10439819;28;20036;-82
2021/11/21 14:49:45;;;;;;;11.07;7.65;;;;;;;;;;10444375;28;21185;-82
2021/11/21 14:54:47;;;;;;;10.85;7.05;;;;;;;;;;10453148;28;20028;-82
2021/11/21 14:59:48;;;;;;;10.75;7.38;;;;;;;;;;10438298;28;20025;-82
2021/11/21 15:04:48;;;;;;;10.15;7.25;;;;;;;;;;10439391;28;20024;-82
2021/11/21 15:09:49;;;;;;;13.13;8.07;;;;;;;;;;10438669;28;20029;-82
2021/11/21 15:14:49;;;;;;;10.57;7.05;;;;;;;;;;10436972;28;20447;-82
2021/11/21 15:19:49;;;;;;;12.97;7.67;;;;;;;;;;10435009;28;20033;-82
2021/11/21 15:24:50;;;;;;;12.50;7.50;;;;;;;;;;10445659;28;20435;-82
2021/11/21 15:29:50;;;;;;;9.43;6.53;;;;;;;;;;10435209;28;20049;-82
2021/11/21 15:34:51;;;;;;;11.13;7.30;;;;;;;;;;10436815;28;20071;-83
2021/11/21 15:39:52;;;;;;;10.90;7.00;;;;;;;;;;10438392;28;21038;-83
2021/11/21 15:44:52;;;;;;;10.05;6.90;;;;;;;;;;10434200;28;20389;-83
2021/11/21 15:49:53;;;;;;;10.20;7.53;;;;;;;;;;10433394;28;20017;-83
2021/11/21 15:54:53;;;;;;;11.50;7.13;;;;;;;;;;10446466;28;20033;-83
2021/11/21 15:59:53;;;;;;;12.65;7.78;;;;;;;;;;10445468;28;20978;-83
2021/11/21 16:04:54;;;;;;;11.87;7.47;;;;;;;;;;10448676;28;20029;-83
2021/11/21 16:09:54;;;;;;;10.93;6.78;;;;;;;;;;10417562;28;20871;-83
2021/11/21 16:14:55;;;;;;;10.27;6.80;;;;;;;;;;10443523;28;20068;-84
2021/11/21 16:19:56;;;;;;;10.93;7.10;;;;;;;;;;10428358;28;20095;-83
2021/11/21 16:24:57;;;;;;;11.52;7.38;;;;;;;;;;10452001;28;20434;-83
2021/11/21 16:29:58;;;;;;;13.00;7.43;;;;;;;;;;10430898;28;20059;-84
2021/11/21 16:35:04;;;;;;;8.48;6.55;;;;;;;;;;10420765;28;20353;-84
2021/11/21 16:40:07;;;;;;;11.45;7.60;;;;;;;;;;10435205;28;20029;-84
2021/11/21 16:45:09;;;;;;;10.95;6.20;;;;;;;;;;10427584;28;20049;-81
2021/11/21 16:50:13;;;;;;;10.82;6.97;;;;;;;;;;10465122;28;20059;-82
2021/11/21 16:55:15;;;;;;;9.43;6.55;;;;;;;;;;10473289;28;20033;-81
2021/11/21 17:00:16;;;;;;;9.57;5.80;;;;;;;;;;10480742;28;20078;-82
2021/11/21 17:05:17;;;;;;;8.57;6.30;;;;;;;;;;10439426;28;20108;-82
2021/11/21 17:10:17;;;;;;;8.82;6.50;;;;;;;;;;10466252;28;20125;-82
2021/11/21 17:15:18;;;;;;;8.00;6.00;;;;;;;;;;10481649;28;20155;-82
2021/11/21 17:20:25;;;;;;;7.63;5.78;;;;;;;;;;10461292;28;20462;-80
2021/11/21 17:25:26;;;;;;;7.85;6.07;;;;;;;;;;10466340;28;20033;-81
2021/11/21 17:30:29;;;;;;;9.48;5.85;;;;;;;;;;10485791;28;20127;-80
2021/11/21 17:35:29;;;;;;;9.70;5.90;;;;;;;;;;10488879;28;20087;-80
2021/11/21 17:40:30;;;;;;;9.02;6.03;;;;;;;;;;10479167;28;20102;-81
2021/11/21 17:45:32;;;;;;;9.50;6.18;;;;;;;;;;10488805;28;20037;-80
2021/11/21 17:50:33;;;;;;;16.23;6.00;;;;;;;;;;10475278;28;20044;-81
2021/11/21 17:55:33;;;;;;;7.82;5.90;;;;;;;;;;10481229;28;20087;-81
2021/11/21 18:00:34;;;;;;;8.10;5.67;;;;;;;;;;10476027;28;20037;-80
2021/11/21 18:05:34;;;;;;;12.57;5.82;;;;;;;;;;10488641;28;20522;-81
2021/11/21 18:10:35;;;;;;;10.98;5.57;;;;;;;;;;10490276;28;20035;-81
2021/11/21 18:15:35;;;;;;;25.37;7.13;;;;;;;;;;10484939;28;20074;-82
2021/11/21 18:20:36;;;;;;;17.17;7.20;;;;;;;;;;10475941;28;20914;-80
2021/11/21 18:25:38;;;;;;;28.15;6.18;;;;;;;;;;10468483;28;20048;-81
2021/11/21 18:30:38;;;;;;;20.90;6.88;;;;;;;;;;10472010;28;20055;-83
2021/11/21 18:35:39;;;;;;;13.48;5.85;;;;;;;;;;10492104;28;20034;-83
2021/11/21 18:40:40;;;;;;;12.07;5.40;;;;;;;;;;10480776;28;20402;-82
2021/11/21 18:45:41;;;;;;;20.67;6.80;;;;;;;;;;10483261;28;20462;-83
2021/11/21 18:50:41;;;;;;;13.77;6.20;;;;;;;;;;10462822;28;20044;-82
2021/11/21 18:55:54;;;;;;;23.25;6.72;;;;;;;;;;10469587;28;20029;-82
2021/11/21 19:00:55;;;;;;;9.90;5.93;;;;;;;;;;10468546;28;20083;-84
2021/11/21 19:05:56;;;;;;;20.17;6.93;;;;;;;;;;10474065;28;20108;-82
2021/11/21 19:10:56;;;;;;;20.25;7.13;;;;;;;;;;10470019;28;20115;-83
2021/11/21 19:15:57;;;;;;;16.17;6.82;;;;;;;;;;10465500;28;20067;-83
2021/11/21 19:20:57;;;;;;;21.67;7.03;;;;;;;;;;10462180;28;20086;-83
2021/11/21 19:25:58;;;;;;;18.60;6.75;;;;;;;;;;10463936;28;20446;-83
2021/11/21 19:31:00;;;;;;;13.65;6.70;;;;;;;;;;10470579;28;20049;-83
2021/11/21 19:36:01;;;;;;;14.98;7.05;;;;;;;;;;10479634;28;20020;-83
2021/11/21 19:41:01;;;;;;;21.40;6.82;;;;;;;;;;10461696;28;20393;-83
2021/11/21 19:46:02;;;;;;;12.18;7.22;;;;;;;;;;10462325;28;20036;-83
2021/11/21 19:51:02;;;;;;;11.30;6.63;;;;;;;;;;10477933;28;20044;-84
2021/11/21 19:56:03;;;;;;;13.67;6.70;;;;;;;;;;10481183;28;20438;-83
2021/11/21 20:01:04;;;;;;;12.43;6.63;;;;;;;;;;10461776;28;20482;-83
2021/11/21 20:06:04;;;;;;;13.05;6.65;;;;;;;;;;10466228;28;20032;-83
2021/11/21 20:11:05;;;;;;;16.08;6.55;;;;;;;;;;10489294;28;20101;-83
2021/11/21 20:16:06;;;;;;;11.82;7.50;;;;;;;;;;10488981;28;20032;-83
2021/11/21 20:21:06;;;;;;;11.18;6.60;;;;;;;;;;10487127;28;20024;-83
2021/11/21 20:26:07;;;;;;;11.50;6.60;;;;;;;;;;10481004;28;20034;-82
2021/11/21 20:36:35;;;;;;;10.80;6.95;;;;;;;;;;10438205;28;20080;-82
2021/11/21 20:41:36;;;;;;;10.70;6.63;;;;;;;;;;10481904;28;20478;-82
2021/11/21 20:46:37;;;;;;;11.35;6.78;;;;;;;;;;10490412;28;20404;-83
2021/11/21 20:51:38;;;;;;;11.23;6.28;;;;;;;;;;10480759;28;20098;-83
2021/11/21 20:56:38;;;;;;;14.25;7.10;;;;;;;;;;10485899;28;20089;-83
2021/11/21 21:01:39;;;;;;;9.40;6.43;;;;;;;;;;10484635;28;20036;-83
2021/11/21 21:06:40;;;;;;;11.00;6.75;;;;;;;;;;10465923;28;20082;-83
2021/11/21 21:11:41;;;;;;;12.63;6.45;;;;;;;;;;10498798;28;20033;-82
2021/11/21 21:16:42;;;;;;;10.18;6.40;;;;;;;;;;10483641;28;20032;-82
2021/11/21 21:21:43;;;;;;;9.85;6.28;;;;;;;;;;10491650;28;20025;-82
2021/11/21 21:26:45;;;;;;;9.48;6.40;;;;;;;;;;10490105;28;20036;-83
2021/11/21 21:31:45;;;;;;;9.90;6.15;;;;;;;;;;10496968;28;20447;-83
2021/11/21 21:36:46;;;;;;;8.00;6.10;;;;;;;;;;10494854;28;20029;-83
2021/11/21 21:41:46;;;;;;;11.57;6.07;;;;;;;;;;10497748;28;20036;-82
2021/11/21 21:46:47;;;;;;;10.70;6.40;;;;;;;;;;10478084;28;20033;-82
2021/11/21 21:51:48;;;;;;;9.38;6.47;;;;;;;;;;10497714;28;20450;-82
2021/11/21 21:56:48;;;;;;;8.23;6.00;;;;;;;;;;10499884;28;20021;-83
2021/11/21 22:01:49;;;;;;;11.57;6.45;;;;;;;;;;10492788;28;20020;-82
2021/11/21 22:06:50;;;;;;;9.38;5.30;;;;;;;;;;10490005;28;20063;-84
2021/11/21 22:11:51;;;;;;;7.82;6.05;;;;;;;;;;10495054;28;20077;-84
2021/11/21 22:16:51;;;;;;;9.43;6.25;;;;;;;;;;10490069;28;20024;-84
2021/11/21 22:21:52;;;;;;;8.27;5.63;;;;;;;;;;10486901;28;20037;-83
2021/11/21 22:26:52;;;;;;;6.78;5.45;;;;;;;;;;10490175;28;20029;-83
2021/11/21 22:31:53;;;;;;;8.07;5.82;;;;;;;;;;10492637;28;20125;-83
2021/11/21 22:36:53;;;;;;;6.50;5.40;;;;;;;;;;10471901;28;20048;-83
2021/11/21 22:41:56;;;;;;;9.23;5.95;;;;;;;;;;10489831;28;20505;-83
2021/11/21 22:46:57;;;;;;;7.47;5.88;;;;;;;;;;10490228;28;20465;-83
2021/11/21 22:51:57;;;;;;;9.70;5.63;;;;;;;;;;10488424;28;20031;-84
2021/11/21 22:57:00;;;;;;;7.93;5.63;;;;;;;;;;10486847;28;20079;-83
2021/11/21 23:02:00;;;;;;;34.30;6.57;;;;;;;;;;10483717;28;20458;-83
2021/11/21 23:07:01;;;;;;;13.63;6.15;;;;;;;;;;10493220;28;20111;-83
2021/11/21 23:12:01;;;;;;;17.38;6.05;;;;;;;;;;10486106;28;20027;-82
2021/11/21 23:17:02;;;;;;;14.57;5.70;;;;;;;;;;10481632;28;20024;-80
2021/11/21 23:22:02;;;;;;;10.52;6.25;;;;;;;;;;10472885;28;20032;-80
2021/11/21 23:27:03;;;;;;;15.93;5.55;;;;;;;;;;10487082;28;20041;-80
2021/11/21 23:32:04;;;;;;;10.35;5.50;;;;;;;;;;10482479;28;20474;-80
2021/11/21 23:37:04;;;;;;;11.80;5.90;;;;;;;;;;10474171;28;20471;-79
2021/11/21 23:42:05;;;;;;;10.93;5.55;;;;;;;;;;10457354;28;20032;-80
2021/11/21 23:47:05;;;;;;;14.60;5.78;;;;;;;;;;10472704;28;20503;-80
2021/11/21 23:52:06;;;;;;;11.25;6.03;;;;;;;;;;10484372;28;20024;-80
2021/11/21 23:57:06;;;;;;;7.25;5.07;;;;;;;;;;10477775;28;20536;-80
